Cumberland College, KY

04:31 AM EST on November 29, 2014 (GMT -0500)
Mackey Bend | Change Station
CLOSE
Current Station
Personal Weather Stations
Location: Barbourville, KY
Elevation: 1020 ft
Nearby Weather Stations

Elev 1020 ft 36.81 °N, 83.96 °W | Updated 17 seconds ago

Växlande molnighet
Växlande molnighet
25.5 °F
Feels Like 26 °F
N
0.0
Vind Växlande Vind from Nordlig
Gusts 0.0 miles/tim

Idag
High -- | Low -- °F
--% Chance of Precip.
Yesterday
High -- | Low -- °F
Precip. -- tum
7:28 AM 5:21 PM
Första kvarteret, 50% visible
Lufttryck 30.17 tum
Sikt 10.0 miles
Molnigt Klart
Vindavkylning 26 °F
Daggpunkt 24 °F
Luftfuktighet 94%
Rainfall 0.00 tum
Snow Depth Not available.
UV 0 out of 12
Pollen .10 out of 12
Air Quality Not available.
Flu Activity Not available.
METAR KLOZ 290853Z AUTO 20003KT 10SM CLR 00/M07 A3014 RMK AO2 SLP215 T00001067 53008

More Conditions Fewer Conditions

Lufttryck 30.17 tum
Sikt 10.0 miles
Molnigt Klart
Vindavkylning 26 °F
Daggpunkt 24 °F
Luftfuktighet 94%
Rainfall 0.00 tum
Snow Depth Not available.
UV 0 out of 12
Pollen .10 out of 12
Air Quality Not available.
Flu Activity Not available.
METAR KLOZ 290853Z AUTO 20003KT 10SM CLR 00/M07 A3014 RMK AO2 SLP215 T00001067 53008

More Conditions Fewer Conditions

10-Day Weather Forecast

Almanac

Astronomi

Nov. 29, 2014 Rise Set
Actual Time
Civil Twilight
Nautical Twilight
Astronomical Twilight
Månen
Length Of Visible Light
Dagens längd
Tomorrow will be .
, % of the Moon is Illuminated

Today's Extremes

State Highs State Lows

Community

WunderPhotos

Upload Photos

1,774,442 photos uploaded!

WunderBlogs® & News

Nearby

Air Quality

  Air Quality AQ Index Pollutant
Not available.

Snödjup

Station Depth Elevation

Earthquake Activity

Stad Distance Mag. Time & Date
Minimum magnitude displayed is 2.5.

Coastal Water Temperatures

Plats Temperatur

Nearby Weather Stations